createdAt,value
2023-01-13T00:00:32.721Z,125.27
2023-01-13T00:01:32.666Z,126.94
2023-01-13T00:02:32.685Z,126.90
2023-01-13T00:03:32.642Z,124.76
2023-01-13T00:04:32.685Z,126.85
2023-01-13T00:05:32.622Z,125.56
2023-01-13T00:06:32.613Z,122.55
2023-01-13T00:07:32.614Z,127.21
2023-01-13T00:08:32.589Z,125.03
2023-01-13T00:09:32.594Z,123.58
2023-01-13T00:10:32.582Z,126.50
2023-01-13T00:11:32.569Z,124.25
2023-01-13T00:12:32.574Z,125.45
2023-01-13T00:13:32.551Z,122.42
2023-01-13T00:14:32.549Z,124.08
2023-01-13T00:15:32.543Z,124.73
2023-01-13T00:16:32.521Z,124.54
2023-01-13T00:17:32.520Z,125.35
2023-01-13T00:18:32.500Z,126.00
2023-01-13T00:19:32.506Z,123.90
2023-01-13T00:20:32.494Z,125.37
2023-01-13T00:21:32.494Z,123.65
2023-01-13T00:22:32.485Z,124.57
2023-01-13T00:23:32.477Z,122.77
2023-01-13T00:24:32.469Z,125.67
2023-01-13T00:25:32.469Z,124.45
2023-01-13T00:26:32.456Z,121.28
2023-01-13T00:27:32.463Z,123.03
2023-01-13T00:28:32.441Z,124.22
2023-01-13T00:29:32.429Z,124.62
2023-01-13T00:30:32.437Z,121.39
2023-01-13T00:31:32.490Z,122.00
2023-01-13T00:32:32.412Z,124.31
2023-01-13T00:33:32.409Z,124.48
2023-01-13T00:34:32.403Z,120.88
2023-01-13T00:35:32.396Z,121.41
2023-01-13T00:36:32.415Z,118.79
2023-01-13T00:37:32.378Z,125.10
2023-01-13T00:38:32.373Z,122.28
2023-01-13T00:39:32.366Z,122.45
2023-01-13T00:40:32.381Z,123.35
2023-01-13T00:41:32.355Z,124.44
2023-01-13T00:42:32.345Z,124.56
2023-01-13T00:43:32.341Z,123.99
2023-01-13T00:44:32.338Z,123.78
2023-01-13T00:45:32.329Z,122.01
2023-01-13T00:46:32.343Z,121.93
2023-01-13T00:47:32.318Z,122.12
2023-01-13T00:48:32.325Z,122.22
2023-01-13T00:49:32.300Z,122.55
2023-01-13T00:50:32.292Z,123.09
2023-01-13T00:51:32.285Z,120.64
2023-01-13T00:52:32.281Z,121.25
2023-01-13T00:53:32.271Z,121.02
2023-01-13T00:54:32.261Z,124.35
2023-01-13T00:55:32.279Z,122.03
2023-01-13T00:56:40.085Z,122.20
2023-01-13T00:57:33.244Z,122.34
2023-01-13T00:58:32.239Z,122.44
2023-01-13T00:59:32.229Z,122.46
2023-01-13T01:00:32.339Z,122.48
2023-01-13T01:01:32.423Z,124.04
2023-01-13T01:02:32.221Z,122.36
2023-01-13T01:03:32.207Z,122.41
2023-01-13T01:04:32.189Z,122.93
2023-01-13T01:05:32.168Z,123.22
2023-01-13T01:06:33.043Z,122.24
2023-01-13T01:07:32.148Z,124.42
2023-01-13T01:08:32.150Z,126.49
2023-01-13T01:09:32.135Z,124.60
2023-01-13T01:10:32.126Z,123.05
2023-01-13T01:11:32.110Z,124.42
2023-01-13T01:12:32.098Z,125.01
2023-01-13T01:13:32.092Z,122.83
2023-01-13T01:14:32.085Z,124.18
2023-01-13T01:15:32.152Z,119.08
2023-01-13T01:16:32.159Z,122.33
2023-01-13T01:17:32.059Z,124.23
2023-01-13T01:18:32.057Z,121.70
2023-01-13T01:19:32.052Z,121.53
2023-01-13T01:20:32.042Z,122.58
2023-01-13T01:21:32.035Z,120.23
2023-01-13T01:22:32.041Z,123.59
2023-01-13T01:23:32.024Z,120.23
2023-01-13T01:24:32.017Z,121.18
2023-01-13T01:25:32.014Z,124.41
2023-01-13T01:26:32.029Z,122.75
2023-01-13T01:27:32.012Z,123.97
2023-01-13T01:28:32.001Z,121.22
2023-01-13T01:29:31.998Z,118.37
2023-01-13T01:30:31.997Z,121.43
2023-01-13T01:31:32.028Z,120.91
2023-01-13T01:32:31.982Z,121.20
2023-01-13T01:33:31.970Z,119.82
2023-01-13T01:34:31.973Z,123.30
2023-01-13T01:35:31.970Z,120.41
2023-01-13T01:36:31.970Z,120.14
2023-01-13T01:37:31.955Z,119.52
2023-01-13T01:38:31.939Z,124.12
2023-01-13T01:39:31.945Z,122.16
2023-01-13T01:40:31.933Z,120.19
2023-01-13T01:41:31.947Z,122.83
2023-01-13T01:42:31.925Z,121.98
2023-01-13T01:43:31.914Z,121.27
2023-01-13T01:44:31.912Z,120.70
2023-01-13T01:45:31.923Z,121.66
2023-01-13T01:46:31.941Z,121.08
2023-01-13T01:47:31.908Z,120.24
2023-01-13T01:48:31.874Z,121.66
2023-01-13T01:49:31.867Z,120.81
2023-01-13T01:50:31.858Z,123.56
2023-01-13T01:51:31.856Z,121.54
2023-01-13T01:52:31.852Z,119.05
2023-01-13T01:53:31.859Z,119.37
2023-01-13T01:54:31.848Z,120.03
2023-01-13T01:55:31.825Z,121.88
2023-01-13T01:56:31.822Z,121.76
2023-01-13T01:57:31.814Z,122.65
2023-01-13T01:58:31.817Z,119.86
2023-01-13T01:59:31.821Z,120.53
2023-01-13T02:00:31.856Z,120.60
2023-01-13T02:01:31.968Z,122.41
2023-01-13T02:02:31.953Z,120.78
2023-01-13T02:03:31.793Z,119.61
2023-01-13T02:04:31.788Z,120.77
2023-01-13T02:05:31.792Z,123.83
2023-01-13T02:06:31.776Z,121.23
2023-01-13T02:07:31.771Z,123.36
2023-01-13T02:08:31.766Z,123.15
2023-01-13T02:09:31.759Z,121.20
2023-01-13T02:10:31.760Z,119.87
2023-01-13T02:11:31.754Z,124.33
2023-01-13T02:12:31.747Z,122.10
2023-01-13T02:13:31.750Z,123.47
2023-01-13T02:14:31.765Z,122.89
2023-01-13T02:15:31.772Z,119.65
2023-01-13T02:16:31.947Z,122.62
2023-01-13T02:17:31.763Z,123.48
2023-01-13T02:18:31.746Z,122.05
2023-01-13T02:19:31.747Z,122.47
2023-01-13T02:20:31.751Z,122.71
2023-01-13T02:21:31.733Z,122.78
2023-01-13T02:22:31.736Z,122.66
2023-01-13T02:23:31.726Z,122.49
2023-01-13T02:24:31.716Z,121.98
2023-01-13T02:25:31.718Z,121.53
2023-01-13T02:26:31.760Z,123.34
2023-01-13T02:27:31.728Z,120.12
2023-01-13T02:28:31.724Z,123.15
2023-01-13T02:29:31.690Z,123.12
2023-01-13T02:30:31.694Z,121.44
2023-01-13T02:31:31.716Z,123.80
2023-01-13T02:32:31.672Z,122.48
2023-01-13T02:49:31.582Z,124.62
2023-01-13T02:50:31.578Z,121.48
2023-01-13T02:51:31.582Z,124.96
2023-01-13T02:52:31.567Z,123.39
2023-01-13T02:53:31.555Z,124.53
2023-01-13T02:54:31.548Z,123.33
2023-01-13T02:55:31.538Z,123.94
2023-01-13T02:56:31.536Z,122.75
2023-01-13T02:57:31.527Z,119.82
2023-01-13T02:58:31.521Z,122.92
2023-01-13T02:59:31.534Z,123.57
2023-01-13T03:00:31.515Z,121.63
2023-01-13T03:01:31.570Z,122.65
2023-01-13T03:02:31.536Z,123.04
2023-01-13T03:04:31.478Z,126.73
2023-01-13T03:05:31.473Z,121.90
2023-01-13T03:06:31.459Z,124.12
2023-01-13T03:07:31.455Z,121.15
2023-01-13T03:08:31.471Z,123.34
2023-01-13T03:09:31.445Z,122.86
2023-01-13T03:10:31.441Z,125.16
2023-01-13T03:11:31.429Z,124.40
2023-01-13T03:12:31.417Z,124.77
2023-01-13T03:13:31.426Z,123.43
2023-01-13T03:14:31.415Z,124.91
2023-01-13T03:15:31.393Z,122.12
2023-01-13T03:16:31.446Z,123.53
2023-01-13T03:17:31.364Z,121.67
2023-01-13T03:18:31.355Z,122.21
2023-01-13T03:19:31.365Z,124.08
2023-01-13T03:20:31.337Z,124.32
2023-01-13T03:21:31.347Z,124.58
2023-01-13T03:22:31.337Z,124.20
2023-01-13T03:23:31.321Z,124.48
2023-01-13T03:24:31.317Z,125.58
2023-01-13T03:25:31.327Z,125.99
2023-01-13T03:26:31.299Z,121.59
2023-01-13T03:27:31.315Z,123.49
2023-01-13T03:28:31.284Z,122.86
2023-01-13T03:29:31.277Z,122.38
2023-01-13T03:30:31.310Z,121.32
2023-01-13T03:31:31.251Z,119.87
2023-01-13T03:32:31.241Z,123.89
2023-01-13T03:33:31.244Z,126.14
2023-01-13T03:34:31.302Z,126.41
2023-01-13T03:35:31.220Z,120.44
2023-01-13T03:36:31.210Z,124.57
2023-01-13T03:37:31.199Z,123.20
2023-01-13T03:38:31.184Z,123.08
2023-01-13T03:39:31.205Z,122.46
2023-01-13T03:40:31.168Z,124.84
2023-01-13T03:41:31.163Z,125.35
2023-01-13T03:42:31.155Z,122.79
2023-01-13T03:43:31.157Z,125.65
2023-01-13T03:44:32.665Z,122.80
2023-01-13T03:45:31.122Z,122.13
2023-01-13T03:46:31.114Z,127.03
2023-01-13T03:47:31.100Z,123.88
2023-01-13T03:48:31.099Z,120.88
2023-01-13T03:49:31.134Z,121.35
2023-01-13T03:50:31.076Z,121.88
2023-01-13T03:51:31.062Z,121.39
2023-01-13T03:52:31.061Z,124.67
2023-01-13T03:53:31.038Z,124.02
2023-01-13T03:54:31.030Z,122.60
2023-01-13T03:55:31.029Z,121.95
2023-01-13T03:56:31.003Z,121.88
2023-01-13T03:57:30.993Z,123.91
2023-01-13T03:58:30.984Z,124.34
2023-01-13T03:59:30.972Z,120.64
2023-01-13T04:00:30.966Z,121.50
2023-01-13T04:01:31.058Z,121.48
2023-01-13T04:02:30.948Z,121.72
2023-01-13T04:03:30.951Z,122.15
2023-01-13T04:04:30.921Z,122.33
2023-01-13T04:05:30.919Z,122.64
2023-01-13T04:06:30.901Z,123.61
2023-01-13T04:07:30.885Z,125.13
2023-01-13T04:08:30.884Z,124.01
2023-01-13T04:09:30.866Z,122.72
2023-01-13T04:10:30.858Z,120.75
2023-01-13T04:11:30.836Z,122.94
2023-01-13T04:12:30.833Z,123.06
2023-01-13T04:13:30.823Z,121.96
2023-01-13T04:14:30.819Z,119.68
2023-01-13T04:15:30.826Z,122.78
2023-01-13T04:16:30.790Z,123.11
2023-01-13T04:17:30.781Z,124.00
2023-01-13T04:18:30.784Z,119.98
2023-01-13T04:19:30.774Z,121.86
2023-01-13T04:20:30.766Z,122.12
2023-01-13T04:21:30.751Z,122.10
2023-01-13T04:22:30.749Z,120.08
2023-01-13T04:23:30.736Z,122.54
2023-01-13T04:24:30.725Z,121.54
2023-01-13T04:25:30.718Z,118.08
2023-01-13T04:26:30.714Z,122.87
2023-01-13T04:27:30.693Z,120.59
2023-01-13T04:28:30.692Z,122.58
2023-01-13T04:29:30.671Z,122.52
2023-01-13T04:30:30.710Z,121.81
2023-01-13T04:31:30.663Z,120.70
2023-01-13T04:32:30.658Z,120.94
2023-01-13T04:33:30.654Z,120.52
2023-01-13T04:34:30.647Z,119.83
2023-01-13T04:35:30.666Z,117.13
2023-01-13T04:36:30.637Z,123.33
2023-01-13T04:37:30.645Z,119.42
2023-01-13T04:38:30.624Z,121.79
2023-01-13T04:39:30.631Z,123.34
2023-01-13T04:40:30.614Z,118.43
2023-01-13T04:41:30.606Z,119.99
2023-01-13T04:42:30.605Z,120.32
2023-01-13T04:43:30.586Z,121.84
2023-01-13T04:44:30.585Z,121.86
2023-01-13T04:45:30.577Z,119.79
2023-01-13T04:46:30.613Z,118.78
2023-01-13T04:47:30.566Z,119.02
2023-01-13T04:48:30.574Z,119.66
2023-01-13T04:49:30.546Z,119.21
2023-01-13T04:50:30.542Z,121.38
2023-01-13T04:51:30.549Z,122.64
2023-01-13T04:52:30.526Z,119.47
2023-01-13T04:53:30.517Z,119.75
2023-01-13T04:54:30.516Z,121.79
2023-01-13T04:55:30.499Z,121.07
2023-01-13T04:56:30.497Z,118.53
2023-01-13T04:57:30.490Z,120.96
2023-01-13T04:58:30.500Z,119.30
2023-01-13T04:59:30.485Z,121.14
2023-01-13T05:00:30.476Z,122.39
2023-01-13T05:01:30.629Z,122.03
2023-01-13T05:02:30.459Z,120.29
2023-01-13T05:03:30.458Z,122.44
2023-01-13T05:04:30.466Z,122.45
2023-01-13T05:05:30.445Z,120.38
2023-01-13T05:06:30.441Z,118.31
2023-01-13T05:07:30.422Z,118.81
2023-01-13T05:08:30.415Z,121.81
2023-01-13T05:09:30.406Z,119.76
2023-01-13T05:10:30.397Z,119.66
2023-01-13T05:11:30.388Z,119.22
2023-01-13T05:12:30.384Z,119.40
2023-01-13T05:13:30.370Z,119.62
2023-01-13T05:14:30.369Z,117.90
2023-01-13T05:15:30.364Z,120.71
2023-01-13T05:16:30.434Z,120.26
2023-01-13T05:17:30.347Z,118.34
2023-01-13T05:18:30.340Z,118.56
2023-01-13T05:19:30.337Z,119.31
2023-01-13T05:20:30.316Z,119.33
2023-01-13T05:21:30.318Z,119.30
2023-01-13T05:22:30.286Z,119.47
2023-01-13T05:23:30.276Z,117.87
2023-01-13T05:24:30.265Z,119.52
2023-01-13T05:25:30.276Z,119.50
2023-01-13T05:26:30.269Z,120.23
2023-01-13T05:27:30.246Z,120.30
2023-01-13T05:28:30.241Z,117.60
2023-01-13T05:29:30.228Z,117.35
2023-01-13T05:30:30.240Z,120.57
2023-01-13T05:31:30.262Z,120.37
2023-01-13T05:32:30.216Z,118.78
2023-01-13T05:33:30.187Z,117.40
2023-01-13T05:34:30.177Z,118.57
2023-01-13T05:35:30.167Z,119.52
2023-01-13T05:36:30.163Z,119.70
2023-01-13T05:37:30.150Z,118.69
2023-01-13T05:38:30.169Z,120.62
2023-01-13T05:39:30.133Z,118.64
2023-01-13T05:40:30.124Z,122.03
2023-01-13T05:41:30.115Z,120.36
2023-01-13T05:42:30.125Z,118.37
2023-01-13T05:43:30.103Z,118.40
2023-01-13T05:44:30.105Z,120.22
2023-01-13T05:45:30.087Z,118.07
2023-01-13T05:46:30.145Z,120.74
2023-01-13T05:47:30.074Z,119.59
2023-01-13T05:48:30.059Z,117.32
2023-01-13T05:49:30.049Z,117.54
2023-01-13T05:50:30.047Z,119.80
2023-01-13T05:51:30.070Z,117.07
2023-01-13T05:52:30.035Z,116.90
2023-01-13T05:53:30.005Z,118.94
2023-01-13T05:54:30.001Z,117.58
2023-01-13T05:55:29.994Z,118.73
2023-01-13T05:56:29.981Z,116.52
2023-01-13T05:57:29.980Z,118.63
2023-01-13T05:58:29.960Z,116.61
2023-01-13T05:59:29.945Z,116.27
2023-01-13T06:00:29.937Z,108.85
2023-01-13T06:01:29.983Z,110.85
2023-01-13T06:02:29.916Z,115.98
2023-01-13T06:03:29.931Z,112.19
2023-01-13T06:04:29.922Z,112.50
2023-01-13T06:05:29.881Z,102.39
2023-01-13T06:06:29.878Z,104.37
2023-01-13T06:07:29.891Z,106.26
2023-01-13T06:08:29.863Z,110.05
2023-01-13T06:09:29.840Z,113.72
2023-01-13T06:10:29.845Z,101.86
2023-01-13T06:11:29.833Z,101.99
2023-01-13T06:12:29.823Z,104.62
2023-01-13T06:13:29.809Z,104.53
2023-01-13T06:14:29.811Z,108.58
2023-01-13T06:15:29.793Z,107.85
2023-01-13T06:16:29.831Z,104.90
2023-01-13T06:17:29.782Z,103.78
2023-01-13T06:18:29.774Z,103.62
2023-01-13T06:19:29.767Z,107.95
2023-01-13T06:20:29.751Z,108.12
2023-01-13T06:21:30.929Z,96.64
2023-01-13T06:22:29.882Z,99.79
2023-01-13T06:23:29.876Z,99.69
2023-01-13T06:24:29.878Z,104.33
2023-01-13T06:25:29.862Z,106.66
2023-01-13T06:26:29.849Z,99.02
2023-01-13T06:27:29.834Z,96.23
2023-01-13T06:28:29.821Z,96.93
2023-01-13T06:29:29.803Z,99.15
2023-01-13T06:30:29.806Z,104.54
2023-01-13T06:31:29.871Z,104.04
2023-01-13T06:32:29.830Z,97.14
2023-01-13T06:33:29.779Z,98.48
2023-01-13T06:34:29.779Z,102.51
2023-01-13T06:35:29.779Z,108.34
2023-01-13T06:36:29.756Z,111.09
2023-01-13T06:37:29.751Z,112.56
2023-01-13T06:38:29.738Z,113.77
2023-01-13T06:39:29.713Z,115.84
2023-01-13T06:40:29.700Z,114.73
2023-01-13T06:41:29.773Z,117.66
2023-01-13T06:42:29.688Z,122.23
2023-01-13T06:43:29.673Z,122.36
2023-01-13T06:44:29.667Z,128.42
2023-01-13T06:45:29.663Z,134.28
2023-01-13T06:46:29.682Z,143.37
2023-01-13T06:47:29.646Z,139.73
2023-01-13T06:48:29.648Z,146.87
2023-01-13T06:49:29.638Z,158.77
2023-01-13T06:50:29.638Z,165.04
2023-01-13T06:51:29.630Z,172.10
2023-01-13T06:52:29.622Z,177.80
2023-01-13T06:53:29.602Z,180.51
2023-01-13T06:54:29.586Z,187.98
2023-01-13T06:55:29.570Z,195.61
2023-01-13T06:56:29.559Z,196.46
2023-01-13T06:57:29.545Z,205.80
2023-01-13T06:58:29.541Z,212.76
2023-01-13T06:59:29.522Z,213.04
2023-01-13T07:00:29.517Z,214.55
2023-01-13T07:01:29.615Z,218.68
2023-01-13T07:02:29.515Z,226.33
2023-01-13T07:03:29.454Z,233.62
2023-01-13T07:04:29.448Z,239.03
2023-01-13T07:05:29.419Z,246.94
2023-01-13T07:06:29.392Z,247.09
2023-01-13T07:07:29.398Z,244.57
2023-01-13T07:08:29.364Z,250.00
2023-01-13T07:09:29.350Z,250.47
2023-01-13T07:10:29.437Z,252.07
2023-01-13T07:11:29.320Z,255.24
2023-01-13T07:12:29.303Z,263.18
2023-01-13T07:13:29.276Z,266.69
2023-01-13T07:14:29.264Z,248.07
2023-01-13T07:15:29.239Z,249.12
2023-01-13T07:16:29.284Z,249.78
2023-01-13T07:17:29.207Z,248.66
2023-01-13T07:18:29.202Z,249.73
2023-01-13T07:19:29.179Z,250.03
2023-01-13T07:20:29.210Z,251.42
2023-01-13T07:21:29.139Z,253.54
2023-01-13T07:22:29.133Z,256.98
2023-01-13T07:23:29.092Z,266.08
2023-01-13T07:24:29.068Z,249.84
2023-01-13T07:25:29.046Z,249.45
2023-01-13T07:26:29.036Z,248.91
2023-01-13T07:27:29.008Z,247.32
2023-01-13T07:28:28.996Z,248.89
2023-01-13T07:29:28.982Z,250.00
2023-01-13T07:30:29.037Z,249.33
2023-01-13T07:31:29.005Z,248.62
2023-01-13T07:32:28.913Z,249.69
2023-01-13T10:29:25.505Z,247.37
2023-01-13T10:30:25.481Z,247.31
2023-01-13T10:31:25.593Z,247.63
2023-01-13T10:32:25.439Z,250.00
2023-01-13T10:33:27.770Z,245.74
2023-01-13T10:34:25.402Z,246.00
2023-01-13T10:35:25.395Z,246.56
2023-01-13T10:36:25.352Z,248.99
2023-01-13T10:37:25.362Z,244.49
2023-01-13T10:38:25.325Z,243.26
2023-01-13T10:39:25.289Z,249.91
2023-01-13T10:40:25.270Z,250.03
2023-01-13T10:41:25.250Z,250.35
2023-01-13T10:43:25.208Z,138.61
2023-01-13T10:44:25.183Z,34.90
2023-01-13T10:45:25.185Z,32.20
2023-01-13T10:46:25.220Z,27.32
2023-01-13T10:47:25.172Z,27.83
2023-01-13T10:48:25.165Z,28.03
2023-01-13T10:50:25.152Z,15.86
2023-01-13T10:51:25.165Z,4.41
2023-01-13T10:52:25.257Z,14.74
2023-01-13T10:53:25.188Z,67.31
2023-01-13T10:54:25.144Z,127.35
2023-01-13T10:55:25.149Z,148.31
2023-01-13T10:56:25.148Z,157.54
2023-01-13T10:57:25.147Z,159.32
2023-01-13T10:58:25.191Z,158.91
2023-01-13T10:59:25.133Z,164.40
2023-01-13T11:00:25.123Z,169.01
2023-01-13T11:01:25.185Z,165.12
2023-01-13T11:02:26.725Z,160.37
2023-01-13T11:03:25.096Z,160.09
2023-01-13T11:04:25.096Z,136.99
2023-01-13T11:05:25.055Z,148.95
2023-01-13T11:06:25.048Z,148.54
2023-01-13T11:07:28.160Z,154.19
2023-01-13T11:08:25.038Z,160.68
2023-01-13T11:09:25.023Z,157.38
2023-01-13T11:10:25.000Z,156.78
2023-01-13T11:11:24.983Z,143.91
2023-01-13T11:12:24.960Z,144.20
2023-01-13T11:13:24.951Z,145.32
2023-01-13T11:14:24.928Z,143.22
2023-01-13T11:15:24.923Z,146.95
2023-01-13T11:16:24.927Z,129.70
2023-01-13T11:17:24.882Z,114.02
2023-01-13T11:18:24.863Z,136.61
2023-01-13T11:19:24.837Z,138.82
2023-01-13T11:20:24.826Z,140.56
2023-01-13T11:21:24.799Z,138.33
2023-01-13T11:22:24.778Z,138.47
2023-01-13T11:23:24.762Z,128.52
2023-01-13T11:24:24.733Z,96.16
2023-01-13T11:25:24.738Z,76.68
2023-01-13T11:26:24.700Z,118.21
2023-01-13T11:27:24.704Z,129.41
2023-01-13T11:28:24.676Z,131.44
2023-01-13T11:29:24.653Z,129.70
2023-01-13T11:30:24.640Z,127.47
2023-01-13T11:31:24.745Z,130.70
2023-01-13T11:32:24.608Z,135.53
2023-01-13T11:33:24.588Z,134.63
2023-01-13T11:34:24.594Z,139.06
2023-01-13T11:35:24.573Z,137.06
2023-01-13T11:36:24.541Z,134.19
2023-01-13T11:37:24.517Z,140.54
2023-01-13T11:38:24.507Z,143.33
2023-01-13T11:39:24.481Z,146.21
2023-01-13T11:40:24.466Z,151.37
2023-01-13T11:41:24.449Z,152.39
2023-01-13T11:42:24.443Z,155.17
2023-01-13T11:43:24.417Z,165.62
2023-01-13T11:44:24.385Z,170.62
2023-01-13T11:45:24.360Z,172.73
2023-01-13T11:46:24.423Z,173.23
2023-01-13T11:47:24.335Z,173.61
2023-01-13T11:48:24.311Z,175.53
2023-01-13T11:49:24.304Z,174.69
2023-01-13T11:51:24.262Z,168.48
2023-01-13T11:52:24.242Z,170.98
2023-01-13T11:53:24.229Z,171.62
2023-01-13T11:54:24.207Z,164.31
2023-01-13T11:55:24.197Z,152.73
2023-01-13T11:57:24.147Z,159.00
2023-01-13T11:58:24.131Z,165.48
2023-01-13T11:59:24.137Z,167.10
2023-01-13T12:00:24.109Z,150.87
2023-01-13T12:01:24.127Z,154.10
2023-01-13T12:02:24.114Z,161.06
2023-01-13T12:03:24.186Z,162.72
2023-01-13T12:04:24.032Z,165.75
2023-01-13T12:05:24.007Z,149.00
2023-01-13T12:08:23.949Z,153.27
2023-01-13T13:02:23.075Z,140.24
2023-01-13T13:03:22.978Z,143.70
2023-01-13T13:04:22.967Z,148.06
2023-01-13T13:05:22.960Z,135.38
2023-01-13T13:06:22.975Z,129.29
2023-01-13T13:07:22.915Z,128.61
2023-01-13T13:08:22.895Z,130.05
2023-01-13T13:09:22.882Z,136.68
2023-01-13T13:10:22.856Z,135.19
2023-01-13T13:11:22.841Z,119.73
2023-01-13T13:12:22.825Z,120.43
2023-01-13T13:13:22.816Z,122.65
2023-01-13T13:14:22.799Z,122.95
2023-01-13T13:15:22.819Z,124.17
2023-01-13T13:16:22.807Z,118.35
2023-01-13T13:17:22.750Z,116.63
2023-01-13T13:18:22.767Z,118.43
2023-01-13T13:19:22.724Z,124.09
2023-01-13T13:20:22.723Z,126.68
2023-01-13T13:21:22.710Z,114.60
2023-01-13T13:22:22.713Z,108.30
2023-01-13T13:23:22.688Z,115.00
2023-01-13T13:24:22.683Z,115.35
2023-01-13T13:25:22.665Z,116.39
2023-01-13T13:26:22.660Z,115.80
2023-01-13T13:27:22.646Z,106.79
2023-01-13T13:28:22.628Z,110.07
2023-01-13T13:29:22.607Z,116.60
2023-01-13T13:30:22.596Z,118.84
2023-01-13T13:31:22.576Z,114.37
2023-01-13T13:32:22.561Z,108.07
2023-01-13T13:33:22.552Z,106.37
2023-01-13T13:34:22.538Z,109.82
2023-01-13T13:35:22.518Z,110.16
2023-01-13T13:36:22.515Z,111.45
2023-01-13T13:37:22.493Z,112.36
2023-01-13T13:38:22.481Z,114.87
2023-01-13T13:39:22.462Z,118.55
2023-01-13T13:40:22.457Z,121.29
2023-01-13T13:41:22.441Z,120.80
2023-01-13T13:42:22.431Z,120.64
2023-01-13T13:43:22.412Z,121.84
2023-01-13T13:44:22.428Z,120.14
2023-01-13T13:45:22.392Z,122.06
2023-01-13T13:46:22.473Z,123.08
2023-01-13T13:47:22.367Z,122.01
2023-01-13T13:48:22.363Z,123.46
2023-01-13T13:49:22.337Z,122.96
2023-01-13T13:50:22.326Z,124.68
2023-01-13T13:51:22.320Z,125.89
2023-01-13T13:52:22.356Z,123.20
2023-01-13T13:53:22.280Z,122.91
2023-01-13T13:54:22.284Z,123.53
2023-01-13T13:55:22.261Z,125.72
2023-01-13T13:56:22.255Z,125.53
2023-01-13T13:57:22.242Z,122.92
2023-01-13T15:28:21.206Z,112.63
2023-01-13T15:29:21.183Z,112.72
2023-01-13T15:30:21.165Z,112.80
2023-01-13T15:31:21.189Z,112.07
2023-01-13T15:32:21.136Z,112.83
2023-01-13T15:33:21.127Z,110.99
2023-01-13T15:34:21.109Z,111.36
2023-01-13T15:35:21.110Z,111.59
2023-01-13T15:36:21.088Z,108.25
2023-01-13T15:37:21.063Z,109.22
2023-01-13T15:38:21.055Z,110.76
2023-01-13T15:39:21.033Z,112.11
2023-01-13T15:40:21.039Z,109.79
2023-01-13T15:41:21.021Z,108.02
2023-01-13T15:42:20.982Z,108.51
2023-01-13T15:43:21.003Z,110.24
2023-01-13T15:44:20.980Z,109.49
2023-01-13T15:45:20.969Z,110.31
2023-01-13T15:46:21.002Z,109.82
2023-01-13T15:47:20.903Z,108.07
2023-01-13T15:48:20.903Z,110.16
2023-01-13T15:49:20.891Z,108.80
2023-01-13T15:50:20.923Z,106.98
2023-01-13T15:51:20.857Z,109.17
2023-01-13T15:52:20.842Z,108.18
2023-01-13T15:53:20.828Z,108.34
2023-01-13T15:54:20.841Z,107.54
2023-01-13T15:55:20.808Z,107.61
2023-01-13T15:56:20.793Z,109.21
2023-01-13T15:57:20.769Z,107.59
2023-01-13T15:58:20.764Z,106.86
2023-01-13T15:59:20.745Z,108.64
2023-01-13T16:00:20.736Z,107.96
2023-01-13T16:01:20.930Z,108.39
2023-01-13T16:02:20.701Z,108.68
2023-01-13T16:03:20.695Z,108.54
2023-01-13T16:04:20.666Z,106.90
2023-01-13T16:05:20.645Z,108.85
2023-01-13T16:06:20.638Z,108.02
2023-01-13T16:07:20.633Z,107.77
2023-01-13T16:08:20.617Z,106.50
2023-01-13T16:09:20.594Z,105.03
2023-01-13T16:10:20.585Z,106.21
2023-01-13T16:11:20.555Z,104.36
2023-01-13T16:12:20.553Z,105.94
2023-01-13T16:13:20.529Z,105.49
2023-01-13T16:14:20.527Z,105.23
2023-01-13T16:15:20.488Z,105.45
2023-01-13T16:16:20.505Z,106.65
2023-01-13T16:17:20.465Z,106.28
2023-01-13T16:18:20.470Z,106.45
2023-01-13T16:19:20.451Z,106.63
2023-01-13T16:20:20.438Z,106.65
2023-01-13T16:21:20.433Z,105.79
2023-01-13T16:22:20.399Z,105.97
2023-01-13T16:23:20.383Z,104.88
2023-01-13T16:24:20.377Z,105.82
2023-01-13T16:25:20.349Z,104.48
2023-01-13T16:26:20.338Z,103.72
2023-01-13T16:27:20.319Z,104.52
2023-01-13T16:28:20.313Z,105.91
2023-01-13T16:29:20.295Z,105.20
2023-01-13T16:30:20.279Z,107.30
2023-01-13T16:31:20.275Z,103.27
2023-01-13T16:32:20.259Z,104.61
2023-01-13T16:33:20.236Z,103.50
2023-01-13T16:34:20.247Z,102.82
2023-01-13T16:35:20.239Z,105.71
2023-01-13T16:36:20.216Z,103.06
2023-01-13T16:37:20.203Z,105.03
2023-01-13T16:38:20.205Z,101.11
2023-01-13T16:39:20.205Z,101.13
2023-01-13T16:40:20.195Z,103.40
2023-01-13T16:41:20.181Z,103.44
2023-01-13T16:42:20.170Z,102.47
2023-01-13T16:43:20.173Z,103.64
2023-01-13T16:44:20.190Z,101.64
2023-01-13T16:45:20.156Z,102.35
2023-01-13T16:46:20.137Z,102.49
2023-01-13T16:47:20.160Z,102.31
2023-01-13T16:48:20.119Z,100.70
2023-01-13T16:49:20.107Z,101.16
2023-01-13T16:50:22.613Z,102.95
2023-01-13T16:51:20.091Z,104.64
2023-01-13T16:52:20.086Z,103.44
2023-01-13T16:53:20.077Z,101.73
2023-01-13T16:54:20.065Z,102.42
2023-01-13T16:55:20.072Z,101.04
2023-01-13T16:56:20.880Z,99.91
2023-01-13T16:57:20.048Z,102.42
2023-01-13T16:58:20.035Z,100.08
2023-01-13T16:59:20.026Z,99.97
2023-01-13T17:00:20.015Z,100.58
2023-01-13T17:01:20.085Z,98.53
2023-01-13T17:02:21.108Z,96.97
2023-01-13T17:03:20.004Z,100.74
2023-01-13T17:04:19.962Z,99.98
2023-01-13T17:05:19.962Z,101.52
2023-01-13T17:06:20.046Z,99.65
2023-01-13T17:07:19.960Z,99.60
2023-01-13T17:08:19.932Z,100.32
2023-01-13T17:09:19.928Z,100.33
2023-01-13T17:10:19.907Z,99.42
2023-01-13T17:11:19.911Z,100.59
2023-01-13T17:12:19.901Z,98.48
2023-01-13T17:13:19.898Z,99.00
2023-01-13T17:14:19.908Z,99.96
2023-01-13T17:15:19.884Z,98.96
2023-01-13T17:16:19.902Z,99.47
2023-01-13T17:17:19.863Z,99.67
2023-01-13T17:18:19.845Z,99.09
2023-01-13T17:19:19.839Z,98.29
2023-01-13T17:20:19.815Z,97.98
2023-01-13T17:21:19.817Z,97.98
2023-01-13T17:22:19.805Z,95.69
2023-01-13T17:23:19.788Z,96.91
2023-01-13T17:24:19.789Z,99.01
2023-01-13T17:25:19.772Z,97.43
2023-01-13T17:26:19.752Z,96.30
2023-01-13T17:27:19.740Z,98.25
2023-01-13T17:28:19.734Z,98.71
2023-01-13T17:29:19.736Z,99.70
2023-01-13T17:30:19.797Z,95.55
2023-01-13T17:31:19.734Z,98.24
2023-01-13T17:32:19.697Z,96.64
2023-01-13T17:33:19.675Z,97.34
2023-01-13T17:34:19.689Z,95.55
2023-01-13T17:35:19.673Z,97.15
2023-01-13T17:36:19.638Z,98.31
2023-01-13T17:37:19.647Z,94.43
2023-01-13T17:38:19.788Z,95.97
2023-01-13T17:39:19.622Z,96.24
2023-01-13T17:40:19.610Z,96.04
2023-01-13T17:41:19.601Z,98.97
2023-01-13T17:42:19.580Z,96.06
2023-01-13T17:43:19.581Z,95.30
2023-01-13T17:44:19.557Z,95.01
2023-01-13T17:45:19.556Z,96.84
2023-01-13T17:46:19.540Z,94.36
2023-01-13T17:47:19.523Z,93.58
2023-01-13T17:48:19.504Z,95.81
2023-01-13T17:49:19.506Z,94.62
2023-01-13T17:50:19.481Z,96.56
2023-01-13T17:51:19.491Z,92.29
2023-01-13T17:52:19.451Z,95.66
2023-01-13T17:53:19.452Z,96.77
2023-01-13T17:54:19.483Z,96.53
2023-01-13T17:55:19.421Z,94.70
2023-01-13T17:56:19.402Z,93.98
2023-01-13T17:57:19.391Z,95.31
2023-01-13T17:58:19.368Z,91.58
2023-01-13T17:59:19.357Z,91.92
2023-01-13T18:00:19.331Z,92.24
2023-01-13T18:01:19.408Z,93.17
2023-01-13T18:02:19.486Z,93.41
2023-01-13T18:03:19.300Z,93.97
2023-01-13T18:04:19.287Z,95.87
2023-01-13T18:05:19.265Z,94.15
2023-01-13T18:06:19.246Z,94.36
2023-01-13T18:07:19.223Z,94.77
2023-01-13T18:08:19.215Z,95.04
2023-01-13T18:09:19.205Z,94.32
2023-01-13T18:10:19.183Z,92.93
2023-01-13T18:11:19.183Z,92.91
2023-01-13T18:12:19.147Z,93.89
2023-01-13T18:13:19.136Z,94.83